createdAt,value
2022-12-15T00:00:16.463Z,73.82
2022-12-15T00:03:02.119Z,70.38
2022-12-15T00:05:49.782Z,66.22
2022-12-15T00:08:36.916Z,65.78
2022-12-15T00:11:22.497Z,66.20
2022-12-15T00:14:08.030Z,67.63
2022-12-15T00:16:53.657Z,69.43
2022-12-15T00:19:39.184Z,67.32
2022-12-15T00:22:24.612Z,68.38
2022-12-15T00:25:11.338Z,66.28
2022-12-15T00:27:56.823Z,67.95
2022-12-15T00:30:42.276Z,70.68
2022-12-15T00:33:29.927Z,67.53
2022-12-15T00:36:17.978Z,71.47
2022-12-15T00:38:46.187Z,70.47
2022-12-15T00:41:17.112Z,71.93
2022-12-15T00:43:45.102Z,72.13
2022-12-15T00:46:30.493Z,71.53
2022-12-15T00:48:59.110Z,70.18
2022-12-15T00:51:44.585Z,69.32
2022-12-15T00:54:29.674Z,66.05
2022-12-15T00:57:16.185Z,67.53
2022-12-15T01:00:01.780Z,70.30
2022-12-15T01:02:47.344Z,69.85
2022-12-15T01:05:33.081Z,73.60
2022-12-15T01:08:19.108Z,81.60
2022-12-15T01:11:04.484Z,82.45
2022-12-15T01:13:51.396Z,80.95
2022-12-15T01:16:36.817Z,82.45
2022-12-15T01:19:22.236Z,81.32
2022-12-15T01:21:50.989Z,84.47
2022-12-15T01:24:18.944Z,87.32
2022-12-15T01:26:46.832Z,84.53
2022-12-15T01:29:16.058Z,86.60
2022-12-15T01:31:44.118Z,83.57
2022-12-15T01:34:12.192Z,83.65
2022-12-15T01:36:40.143Z,83.50
2022-12-15T01:39:08.155Z,78.57
2022-12-15T01:41:35.123Z,79.70
2022-12-15T01:44:19.004Z,77.72
2022-12-15T01:46:48.249Z,74.65
2022-12-15T01:49:21.753Z,72.85
2022-12-15T01:51:52.402Z,72.15
2022-12-15T01:54:23.606Z,69.90
2022-12-15T01:56:56.044Z,70.72
2022-12-15T01:59:31.936Z,68.15
2022-12-15T02:01:59.980Z,63.38
2022-12-15T02:04:28.113Z,65.18
2022-12-15T02:06:56.012Z,65.53
2022-12-15T02:09:25.616Z,65.97
2022-12-15T02:12:02.054Z,66.00
2022-12-15T02:14:44.635Z,62.35
2022-12-15T02:17:23.319Z,62.38
2022-12-15T02:20:37.608Z,62.53
2022-12-15T02:23:32.916Z,58.22
2022-12-15T02:26:33.740Z,59.92
2022-12-15T02:29:13.256Z,58.20
2022-12-15T02:31:52.041Z,60.95
2022-12-15T02:34:27.468Z,59.35
2022-12-15T02:37:00.371Z,61.88
2022-12-15T02:39:28.276Z,62.25
2022-12-15T02:41:56.286Z,63.47
2022-12-15T02:44:29.075Z,62.10
2022-12-15T02:47:15.136Z,57.47
2022-12-15T02:49:55.048Z,59.40
2022-12-15T02:52:34.521Z,58.33
2022-12-15T02:55:17.003Z,58.63
2022-12-15T02:57:55.043Z,60.95
2022-12-15T03:00:23.906Z,60.35
2022-12-15T03:02:55.460Z,61.25
2022-12-15T03:05:25.534Z,57.40
2022-12-15T03:07:55.060Z,60.58
2022-12-15T03:10:25.451Z,59.35
2022-12-15T03:12:54.471Z,57.03
2022-12-15T03:15:22.601Z,56.10
2022-12-15T03:17:50.607Z,57.47
2022-12-15T03:20:19.985Z,56.85
2022-12-15T03:22:47.897Z,54.13
2022-12-15T03:25:15.960Z,55.42
2022-12-15T03:27:44.351Z,53.47
2022-12-15T03:30:13.637Z,54.78
2022-12-15T03:32:41.590Z,53.25
2022-12-15T03:35:09.901Z,53.85
2022-12-15T03:37:39.269Z,51.38
2022-12-15T03:40:08.593Z,51.33
2022-12-15T03:42:51.583Z,50.25
2022-12-15T03:45:21.197Z,50.38
2022-12-15T03:47:50.144Z,51.58
2022-12-15T03:50:20.689Z,51.03
2022-12-15T03:52:53.324Z,51.45
2022-12-15T03:55:21.924Z,49.35
2022-12-15T03:57:50.330Z,48.78
2022-12-15T04:00:20.045Z,49.00
2022-12-15T04:02:50.138Z,47.30
2022-12-15T04:05:20.699Z,48.88
2022-12-15T04:07:48.958Z,47.33
2022-12-15T04:10:18.566Z,48.95
2022-12-15T04:12:46.478Z,49.80
2022-12-15T04:15:14.716Z,48.45
2022-12-15T04:17:43.356Z,49.22
2022-12-15T04:20:12.100Z,50.33
2022-12-15T04:22:40.863Z,49.90
2022-12-15T04:25:29.211Z,51.58
2022-12-15T04:28:15.659Z,52.47
2022-12-15T04:31:04.953Z,49.08
2022-12-15T04:33:51.147Z,50.08
2022-12-15T04:36:36.616Z,49.55
2022-12-15T04:39:23.495Z,49.55
2022-12-15T04:42:09.485Z,49.92
2022-12-15T04:44:56.527Z,50.45
2022-12-15T04:47:41.972Z,51.20
2022-12-15T04:50:27.398Z,53.80
2022-12-15T04:53:12.920Z,53.28
2022-12-15T04:55:58.550Z,56.33
2022-12-15T04:58:43.968Z,52.72
2022-12-15T05:01:30.675Z,53.97
2022-12-15T05:04:16.169Z,52.70
2022-12-15T05:07:01.608Z,53.05
2022-12-15T05:09:47.150Z,57.92
2022-12-15T05:12:32.442Z,54.63
2022-12-15T05:15:17.988Z,54.80
2022-12-15T05:18:04.648Z,53.70
2022-12-15T05:20:50.301Z,53.60
2022-12-15T05:23:35.783Z,53.95
2022-12-15T05:26:21.408Z,55.38
2022-12-15T05:29:06.908Z,52.25
2022-12-15T05:31:52.250Z,54.88
2022-12-15T05:34:23.338Z,56.55
2022-12-15T05:39:20.883Z,55.03
2022-12-15T05:41:49.116Z,56.08
2022-12-15T05:44:17.392Z,57.60
2022-12-15T05:46:45.387Z,57.38
2022-12-15T05:49:15.980Z,51.70
2022-12-15T05:51:47.068Z,50.15
2022-12-15T05:54:17.199Z,53.33
2022-12-15T05:56:45.538Z,55.05
2022-12-15T05:59:13.953Z,57.22
2022-12-15T06:01:41.957Z,59.63
2022-12-15T06:04:11.903Z,61.22
2022-12-15T06:06:40.281Z,57.70
2022-12-15T06:09:10.312Z,60.53
2022-12-15T06:11:38.372Z,61.97
2022-12-15T06:14:06.438Z,62.25
2022-12-15T06:16:38.265Z,63.05
2022-12-15T06:19:09.197Z,61.15
2022-12-15T06:21:37.976Z,63.28
2022-12-15T06:24:07.026Z,66.38
2022-12-15T06:26:38.041Z,69.53
2022-12-15T06:29:08.778Z,64.47
2022-12-15T06:31:37.607Z,64.03
2022-12-15T06:34:07.451Z,62.83
2022-12-15T06:36:36.035Z,64.55
2022-12-15T06:39:06.289Z,63.90
2022-12-15T06:41:35.782Z,63.17
2022-12-15T06:44:03.812Z,63.22
2022-12-15T06:46:33.231Z,63.00
2022-12-15T06:49:01.850Z,64.60
2022-12-15T06:51:30.239Z,66.85
2022-12-15T06:53:58.291Z,64.57
2022-12-15T06:56:33.192Z,64.35
2022-12-15T06:59:04.290Z,62.88
2022-12-15T07:01:33.171Z,65.43
2022-12-15T07:04:03.069Z,66.07
2022-12-15T07:06:36.581Z,67.05
2022-12-15T07:09:07.170Z,69.07
2022-12-15T07:11:35.385Z,65.85
2022-12-15T07:14:06.014Z,66.15
2022-12-15T07:16:34.244Z,76.50
2022-12-15T07:19:02.418Z,75.53
2022-12-15T07:21:30.826Z,76.07
2022-12-15T07:23:59.926Z,77.78
2022-12-15T07:26:28.623Z,75.25
2022-12-15T07:28:56.804Z,77.38
2022-12-15T07:31:26.340Z,75.93
2022-12-15T07:33:54.740Z,81.00
2022-12-15T07:36:23.181Z,81.53
2022-12-15T07:38:51.982Z,78.82
2022-12-15T07:41:21.262Z,79.95
2022-12-15T07:43:49.635Z,80.20
2022-12-15T07:46:17.933Z,80.00
2022-12-15T07:48:50.981Z,79.38
2022-12-15T07:51:21.204Z,79.45
2022-12-15T07:53:50.891Z,83.72
2022-12-15T07:56:20.386Z,85.28
2022-12-15T07:58:48.359Z,89.18
2022-12-15T08:01:17.174Z,90.53
2022-12-15T08:03:46.009Z,92.55
2022-12-15T08:06:16.916Z,93.88
2022-12-15T08:08:50.295Z,96.07
2022-12-15T08:11:20.466Z,99.97
2022-12-15T08:14:05.659Z,103.65
2022-12-15T08:16:36.705Z,108.70
2022-12-15T08:19:06.331Z,104.47
2022-12-15T08:21:35.847Z,105.65
2022-12-15T08:24:04.220Z,105.82
2022-12-15T08:26:32.175Z,107.78
2022-12-15T08:29:40.659Z,106.47
2022-12-15T08:31:52.727Z,102.90
2022-12-15T08:34:21.031Z,102.47
2022-12-15T08:36:50.460Z,104.15
2022-12-15T08:39:18.411Z,104.75
2022-12-15T08:41:46.376Z,106.05
2022-12-15T08:44:14.387Z,108.78
2022-12-15T08:46:42.334Z,104.65
2022-12-15T08:49:15.255Z,105.60
2022-12-15T08:51:45.920Z,109.63
2022-12-15T08:54:20.349Z,110.05
2022-12-15T08:56:48.478Z,110.38
2022-12-15T08:59:16.913Z,112.60
2022-12-15T09:01:44.871Z,112.63
2022-12-15T09:04:13.154Z,115.93
2022-12-15T09:06:41.153Z,114.70
2022-12-15T09:09:12.471Z,117.05
2022-12-15T09:11:41.891Z,118.03
2022-12-15T09:14:09.803Z,119.10
2022-12-15T09:16:37.753Z,122.25
2022-12-15T09:19:05.781Z,121.20
2022-12-15T09:21:33.687Z,125.07
2022-12-15T09:24:02.748Z,126.45
2022-12-15T09:26:32.500Z,127.85
2022-12-15T09:29:02.878Z,126.93
2022-12-15T09:31:32.843Z,130.38
2022-12-15T09:34:02.174Z,133.90
2022-12-15T09:36:32.518Z,137.32
2022-12-15T09:39:01.870Z,140.18
2022-12-15T09:41:32.126Z,147.48
2022-12-15T09:44:04.383Z,159.30
2022-12-15T09:49:10.979Z,156.68
2022-12-15T09:51:44.622Z,162.13
2022-12-15T09:54:12.893Z,170.68
2022-12-15T09:56:49.874Z,175.32
2022-12-15T09:59:30.683Z,172.65
2022-12-15T10:02:22.759Z,172.70
2022-12-15T10:04:59.044Z,179.25
2022-12-15T10:07:32.320Z,177.95
2022-12-15T10:10:00.298Z,177.52
2022-12-15T10:12:32.647Z,179.77
2022-12-15T10:17:46.522Z,174.95
2022-12-15T10:20:21.508Z,181.75
2022-12-15T10:22:51.241Z,183.73
2022-12-15T10:25:29.285Z,189.05
2022-12-15T10:28:18.707Z,187.40
2022-12-15T10:30:52.793Z,194.80
2022-12-15T10:33:24.943Z,195.15
2022-12-15T10:35:54.933Z,204.30
2022-12-15T10:38:32.192Z,199.98
2022-12-15T10:41:02.050Z,211.55
2022-12-15T10:43:34.581Z,208.13
2022-12-15T10:46:08.337Z,204.88
2022-12-15T10:48:36.602Z,207.02
2022-12-15T10:51:21.065Z,212.70
2022-12-15T10:53:51.004Z,208.40
2022-12-15T10:56:32.432Z,212.55
2022-12-15T10:59:03.557Z,216.65
2022-12-15T11:01:35.682Z,210.40
2022-12-15T11:06:34.030Z,222.98
2022-12-15T11:09:10.947Z,223.50
2022-12-15T11:12:06.287Z,215.00
2022-12-15T11:14:44.724Z,216.60
2022-12-15T11:17:18.551Z,231.30
2022-12-15T11:20:01.636Z,227.27
2022-12-15T11:22:40.969Z,227.73
2022-12-15T11:25:25.936Z,223.55
2022-12-15T11:27:57.963Z,221.00
2022-12-15T11:30:30.466Z,222.88
2022-12-15T11:33:01.595Z,231.85
2022-12-15T11:35:36.685Z,223.75
2022-12-15T11:38:14.164Z,225.95
2022-12-15T11:40:43.060Z,231.45
2022-12-15T11:43:35.282Z,241.63
2022-12-15T11:46:19.775Z,240.23
2022-12-15T11:49:09.076Z,235.00
2022-12-15T11:51:43.576Z,234.75
2022-12-15T11:54:19.535Z,234.93
2022-12-15T11:56:51.474Z,237.70
2022-12-15T11:59:48.304Z,235.18
2022-12-15T12:02:45.767Z,245.77
2022-12-15T12:05:41.635Z,240.00
2022-12-15T12:08:36.576Z,235.07
2022-12-15T12:11:11.037Z,227.27
2022-12-15T12:13:51.181Z,223.93
2022-12-15T12:16:32.402Z,232.27
2022-12-15T12:19:05.656Z,225.80
2022-12-15T12:21:37.927Z,203.85
2022-12-15T12:24:12.854Z,213.50
2022-12-15T12:26:46.160Z,213.57
2022-12-15T12:29:21.269Z,207.00
2022-12-15T12:32:04.164Z,206.15
2022-12-15T12:34:43.589Z,202.02
2022-12-15T12:37:20.925Z,192.93
2022-12-15T12:39:50.841Z,193.15
2022-12-15T12:42:26.537Z,184.43
2022-12-15T12:44:54.514Z,186.30
2022-12-15T12:47:27.451Z,186.60
2022-12-15T12:49:58.509Z,168.02
2022-12-15T12:52:31.225Z,168.57
2022-12-15T12:55:01.416Z,172.32
2022-12-15T12:57:38.338Z,173.95
2022-12-15T13:00:24.886Z,156.77
2022-12-15T13:03:10.210Z,148.90
2022-12-15T13:05:39.786Z,147.25
2022-12-15T13:11:58.119Z,130.10
2022-12-15T13:14:36.938Z,121.72
2022-12-15T13:17:28.186Z,113.78
2022-12-15T13:20:25.712Z,103.85
2022-12-15T13:22:55.196Z,84.63
2022-12-15T13:25:40.850Z,63.85
2022-12-15T13:28:24.276Z,49.17
2022-12-15T13:31:23.020Z,38.08
2022-12-15T13:33:56.696Z,21.70
2022-12-15T13:36:47.016Z,13.88
2022-12-15T13:39:58.038Z,9.57
2022-12-15T13:42:45.595Z,6.53
2022-12-15T13:45:43.096Z,7.18
2022-12-15T13:48:23.386Z,5.55
2022-12-15T13:51:02.510Z,6.50
2022-12-15T13:53:38.777Z,3.85
2022-12-15T13:56:23.605Z,8.85
2022-12-15T13:59:03.991Z,3.65
2022-12-15T14:01:33.836Z,8.20
2022-12-15T14:04:07.997Z,5.03
2022-12-15T14:06:38.925Z,4.80
2022-12-15T14:09:11.068Z,6.72
2022-12-15T14:11:57.326Z,3.85
2022-12-15T14:14:30.084Z,7.40
2022-12-15T14:17:01.075Z,7.93
2022-12-15T14:19:38.822Z,7.22
2022-12-15T14:22:28.044Z,6.43
2022-12-15T14:25:13.238Z,6.57
2022-12-15T14:27:41.152Z,7.70
2022-12-15T14:30:20.220Z,5.55
2022-12-15T14:32:52.677Z,6.47
2022-12-15T14:35:26.776Z,5.75
2022-12-15T14:37:58.736Z,7.60
2022-12-15T14:40:29.511Z,10.85
2022-12-15T14:42:57.953Z,7.15
2022-12-15T14:45:32.049Z,7.80
2022-12-15T14:50:59.407Z,9.27
2022-12-15T14:53:31.732Z,4.90
2022-12-15T14:58:42.420Z,8.27
2022-12-15T15:01:26.266Z,12.88
2022-12-15T15:03:07.287Z,139.00
2022-12-15T15:04:02.004Z,4.18
2022-12-15T15:06:41.119Z,4.75
2022-12-15T15:09:25.366Z,8.20
2022-12-15T15:11:56.570Z,5.45
2022-12-15T15:14:27.801Z,8.35
2022-12-15T15:17:05.563Z,7.72
2022-12-15T15:19:39.091Z,8.55
2022-12-15T15:22:14.155Z,6.82
2022-12-15T15:24:42.155Z,28.85
2022-12-15T15:27:25.178Z,8.70
2022-12-15T15:29:53.433Z,6.53
2022-12-15T15:32:25.097Z,10.70
2022-12-15T15:34:53.027Z,8.10
2022-12-15T15:37:23.765Z,13.60
2022-12-15T15:39:53.043Z,7.82
2022-12-15T15:42:21.289Z,8.77
2022-12-15T15:44:49.172Z,7.60
2022-12-15T15:47:26.359Z,8.85
2022-12-15T15:49:55.916Z,14.43
2022-12-15T15:52:24.385Z,12.05
2022-12-15T15:54:54.696Z,10.05
2022-12-15T15:57:22.900Z,8.95
2022-12-15T15:59:51.060Z,7.88
2022-12-15T16:02:19.147Z,8.73
2022-12-15T16:04:48.576Z,8.40
2022-12-15T16:07:23.539Z,11.20
2022-12-15T16:09:51.739Z,8.73
2022-12-15T16:12:27.750Z,10.18
2022-12-15T16:14:55.921Z,8.77
2022-12-15T16:17:24.275Z,7.30
2022-12-15T16:19:53.547Z,7.93
2022-12-15T16:22:23.142Z,9.43
2022-12-15T16:24:51.124Z,9.82
2022-12-15T16:27:19.065Z,11.88
2022-12-15T16:29:47.010Z,9.27
2022-12-15T16:32:15.448Z,12.45
2022-12-15T16:34:43.580Z,9.38
2022-12-15T16:37:25.418Z,11.80
2022-12-15T16:39:53.605Z,13.73
2022-12-15T16:42:21.593Z,10.70
2022-12-15T16:44:49.570Z,12.70
2022-12-15T16:47:17.481Z,9.25
2022-12-15T16:49:45.529Z,9.85
2022-12-15T16:52:20.698Z,10.95
2022-12-15T16:54:50.180Z,13.05
2022-12-15T16:57:18.453Z,12.88
2022-12-15T16:59:46.408Z,10.52
2022-12-15T17:02:28.140Z,10.25
2022-12-15T17:04:56.377Z,12.38
2022-12-15T17:07:27.576Z,11.40
2022-12-15T17:09:55.603Z,14.13
2022-12-15T17:12:23.608Z,17.02
2022-12-15T17:14:51.556Z,11.98
2022-12-15T17:17:21.263Z,14.80
2022-12-15T17:20:19.835Z,13.50
2022-12-15T17:22:38.899Z,15.15
2022-12-15T17:25:07.512Z,14.55
2022-12-15T17:27:35.484Z,16.27
2022-12-15T17:30:03.630Z,16.77
2022-12-15T17:32:31.683Z,16.05
2022-12-15T17:34:59.635Z,19.70
2022-12-15T17:37:32.004Z,22.33
2022-12-15T17:40:05.099Z,32.45
2022-12-15T17:42:32.998Z,26.98
2022-12-15T17:45:00.955Z,22.45
2022-12-15T17:47:30.438Z,31.38
2022-12-15T17:49:58.405Z,27.48
2022-12-15T17:52:29.315Z,33.33
2022-12-15T17:54:57.895Z,40.53
2022-12-15T17:57:27.368Z,45.28
2022-12-15T17:59:55.848Z,49.65
2022-12-15T18:02:23.878Z,51.97
2022-12-15T18:04:51.970Z,52.03
2022-12-15T18:07:22.382Z,53.00
2022-12-15T18:09:51.890Z,51.65
2022-12-15T18:12:22.610Z,54.47
2022-12-15T18:14:52.360Z,53.10
2022-12-15T18:17:20.583Z,50.50
2022-12-15T18:19:48.862Z,48.22
2022-12-15T18:22:21.059Z,48.78
2022-12-15T18:24:49.376Z,49.88
2022-12-15T18:27:23.715Z,48.67
2022-12-15T18:29:53.931Z,48.70
2022-12-15T18:32:23.711Z,46.15
2022-12-15T18:34:52.342Z,43.88
2022-12-15T18:37:23.048Z,41.67
2022-12-15T18:39:51.512Z,42.05
2022-12-15T18:42:21.592Z,42.95
2022-12-15T18:44:51.596Z,40.38
2022-12-15T18:47:23.890Z,37.60
2022-12-15T18:52:22.569Z,35.85
2022-12-15T18:54:52.261Z,35.20
2022-12-15T18:57:28.037Z,35.13
2022-12-15T18:59:58.749Z,36.33
2022-12-15T19:02:28.316Z,35.65
2022-12-15T19:04:56.887Z,31.95
2022-12-15T19:07:24.839Z,31.15
2022-12-15T19:09:52.869Z,31.45
2022-12-15T19:12:20.969Z,31.50
2022-12-15T19:14:51.398Z,29.23
2022-12-15T19:17:39.347Z,29.55
2022-12-15T19:20:39.468Z,29.27
2022-12-15T19:23:08.499Z,31.52
2022-12-15T19:25:36.762Z,31.70
2022-12-15T19:28:05.099Z,33.92
2022-12-15T19:30:40.286Z,34.60
2022-12-15T19:33:09.916Z,35.95
2022-12-15T19:35:39.874Z,39.95
2022-12-15T19:38:08.634Z,42.85
2022-12-15T19:40:38.171Z,45.72
2022-12-15T19:43:07.244Z,48.13
2022-12-15T19:45:35.234Z,51.20
2022-12-15T19:48:03.414Z,53.53
2022-12-15T19:50:36.602Z,52.00
2022-12-15T19:53:11.764Z,51.10
2022-12-15T19:55:40.277Z,52.72
2022-12-15T19:58:27.949Z,56.38
2022-12-15T20:00:58.061Z,62.42
2022-12-15T20:03:26.846Z,66.22
2022-12-15T20:05:56.376Z,69.10
2022-12-15T20:08:27.747Z,69.40
2022-12-15T20:10:56.751Z,74.93
2022-12-15T20:13:26.372Z,76.70
2022-12-15T20:15:54.841Z,76.13
2022-12-15T20:18:23.008Z,73.95
2022-12-15T20:20:51.438Z,78.45
2022-12-15T20:23:21.835Z,86.75
2022-12-15T20:25:51.167Z,83.95
2022-12-15T20:28:21.766Z,78.78
2022-12-15T20:30:50.426Z,80.57
2022-12-15T20:33:19.141Z,82.38
2022-12-15T20:35:49.056Z,86.22
2022-12-15T20:38:25.902Z,86.25
2022-12-15T20:40:56.313Z,87.50
2022-12-15T20:43:25.851Z,91.85
2022-12-15T20:46:01.798Z,91.90
2022-12-15T20:48:31.023Z,94.45
2022-12-15T20:51:01.949Z,95.38
2022-12-15T20:53:32.935Z,99.70
2022-12-15T20:56:02.603Z,103.20
2022-12-15T20:58:33.331Z,96.82
2022-12-15T21:01:01.832Z,98.70
2022-12-15T21:03:32.000Z,106.50
2022-12-15T21:06:00.851Z,109.03
2022-12-15T21:08:31.630Z,113.57
2022-12-15T21:11:08.324Z,109.95
2022-12-15T21:13:36.495Z,112.40
2022-12-15T21:16:04.568Z,114.93
2022-12-15T21:21:25.229Z,121.28
2022-12-15T21:23:53.178Z,121.60
2022-12-15T21:26:25.909Z,122.45
2022-12-15T21:28:57.077Z,128.80
2022-12-15T21:31:25.203Z,135.25
2022-12-15T21:33:53.244Z,133.45
2022-12-15T21:36:23.222Z,140.43
2022-12-15T21:38:53.014Z,139.07
2022-12-15T21:41:24.761Z,139.82
2022-12-15T21:43:52.706Z,137.18
2022-12-15T21:46:28.397Z,136.48
2022-12-15T21:49:17.313Z,137.45
2022-12-15T21:51:47.682Z,133.02
2022-12-15T21:54:19.146Z,134.93
2022-12-15T21:56:49.505Z,132.13
2022-12-15T21:59:20.718Z,126.88
2022-12-15T22:01:49.768Z,133.18
2022-12-15T22:04:22.041Z,128.75
2022-12-15T22:06:51.123Z,128.90
2022-12-15T22:09:21.251Z,137.43
2022-12-15T22:11:53.872Z,142.60
2022-12-15T22:14:26.848Z,145.55
2022-12-15T22:16:55.519Z,146.02
2022-12-15T22:19:23.875Z,148.10
2022-12-15T22:21:52.296Z,154.93
2022-12-15T22:24:20.878Z,161.00
2022-12-15T22:26:50.319Z,165.30
2022-12-15T22:29:21.613Z,166.63
2022-12-15T22:31:50.595Z,167.18
2022-12-15T22:34:21.633Z,169.88
2022-12-15T22:36:50.404Z,171.70
2022-12-15T22:39:19.007Z,166.40
2022-12-15T22:41:51.448Z,165.65
2022-12-15T22:44:22.994Z,163.05
2022-12-15T22:46:52.377Z,160.18
2022-12-15T22:49:24.821Z,163.20
2022-12-15T22:51:52.767Z,168.88
2022-12-15T22:54:25.418Z,166.50
2022-12-15T22:56:58.579Z,167.93
2022-12-15T22:59:30.101Z,168.07
2022-12-15T23:01:58.402Z,166.80
2022-12-15T23:04:26.461Z,166.18
2022-12-15T23:06:54.876Z,160.05
2022-12-15T23:09:22.973Z,161.20
2022-12-15T23:11:49.950Z,161.82
2022-12-15T23:14:40.234Z,159.43
2022-12-15T23:17:07.274Z,156.70
2022-12-15T23:19:36.311Z,151.00
2022-12-15T23:22:04.419Z,155.25
2022-12-15T23:24:32.647Z,151.60
2022-12-15T23:27:00.890Z,152.15
2022-12-15T23:29:30.212Z,151.70
2022-12-15T23:31:58.389Z,152.93
2022-12-15T23:34:26.376Z,143.50
2022-12-15T23:36:54.336Z,150.30
2022-12-15T23:39:22.411Z,151.00
2022-12-15T23:41:50.402Z,155.75
2022-12-15T23:44:18.501Z,153.82
2022-12-15T23:46:47.955Z,152.02
2022-12-15T23:49:15.971Z,156.57
2022-12-15T23:51:44.158Z,151.05
2022-12-15T23:54:12.130Z,148.77
2022-12-15T23:56:40.768Z,150.88
2022-12-15T23:59:08.709Z,150.07
